Time;durP1;ratioP1;P1;durP2;ratioP2;P2;SDS_P1;SDS_P2;PMS_P1;PMS_P2;Temp;Humidity;BMP_temperature;BMP_pressure;BME280_temperature;BME280_humidity;BME280_pressure;Samples;Min_cycle;Max_cycle;Signal;HPM_P1;HPM_P2
2022/03/17 00:01:58;;;;;;;;;74.40;60.60;;;;;10.69;38.51;100056.38;6293875;27;97578;-64
2022/03/17 00:05:04;;;;;;;;;78.00;61.00;;;;;10.65;38.38;100069.38;6294718;27;96745;-64
2022/03/17 00:08:08;;;;;;;;;74.00;60.50;;;;;10.62;38.77;100075.19;6294191;27;98859;-64
2022/03/17 00:11:11;;;;;;;;;72.00;57.00;;;;;10.61;38.46;100078.91;6310710;27;96693;-64
2022/03/17 00:14:15;;;;;;;;;72.60;59.80;;;;;10.58;38.58;100071.19;6311394;27;97459;-64
2022/03/17 00:17:18;;;;;;;;;74.00;59.20;;;;;10.55;38.43;100077.00;6313727;27;97415;-63
2022/03/17 00:20:23;;;;;;;;;73.00;58.20;;;;;10.50;38.45;100073.19;6293167;27;97867;-62
2022/03/17 00:23:26;;;;;;;;;74.00;58.40;;;;;10.46;38.65;100077.31;6311253;27;97240;-62
2022/03/17 00:26:30;;;;;;;;;72.40;57.40;;;;;10.35;39.06;100086.72;6311117;27;97441;-62
2022/03/17 00:29:33;;;;;;;;;72.00;56.60;;;;;10.33;38.93;100078.81;6311207;27;96675;-64
2022/03/17 00:32:38;;;;;;;;;72.33;57.33;;;;;10.33;38.87;100097.69;6312046;27;97753;-62
2022/03/17 00:35:43;;;;;;;;;73.25;55.50;;;;;10.29;39.12;100092.88;6301709;27;97650;-62
2022/03/17 00:38:46;;;;;;;;;73.00;56.50;;;;;10.25;38.92;100095.13;6293159;27;97979;-63
2022/03/17 00:41:50;;;;;;;;;70.75;53.75;;;;;10.18;38.91;100087.97;6292257;27;97255;-62
2022/03/17 00:44:54;;;;;;;;;75.00;55.00;;;;;10.06;39.08;100084.09;6311685;27;97383;-62
2022/03/17 00:47:58;;;;;;;;;69.40;53.00;;;;;10.00;39.36;100091.06;6291930;27;97557;-62
2022/03/17 00:51:02;;;;;;;;;71.40;53.80;;;;;9.96;39.48;100098.69;6311061;27;97450;-63
2022/03/17 00:54:06;;;;;;;;;72.25;53.00;;;;;9.91;39.50;100095.72;6314221;27;96388;-63
2022/03/17 00:57:12;;;;;;;;;72.40;53.40;;;;;9.88;39.79;100100.63;6316020;27;97413;-63
2022/03/17 01:00:18;;;;;;;;;72.00;52.00;;;;;9.84;39.81;100102.03;6304398;27;97584;-63
2022/03/17 01:03:21;;;;;;;;;72.40;55.00;;;;;9.82;39.83;100102.22;6316240;27;97779;-63
2022/03/17 01:06:26;;;;;;;;;70.60;53.60;;;;;9.80;39.98;100100.75;6297016;27;96850;-63
2022/03/17 01:09:29;;;;;;;;;73.00;55.00;;;;;9.76;40.10;100103.00;6294874;27;97390;-63
2022/03/17 01:12:33;;;;;;;;;74.00;57.00;;;;;9.76;40.12;100104.84;6313210;27;98053;-63
2022/03/17 01:15:37;;;;;;;;;69.00;53.00;;;;;9.72;40.10;100109.78;6311952;27;97000;-63
2022/03/17 01:18:40;;;;;;;;;71.60;53.00;;;;;9.69;40.24;100107.44;6279327;27;98332;-63
2022/03/17 01:21:45;;;;;;;;;69.25;52.25;;;;;9.67;40.35;100112.19;6314018;27;97458;-63
2022/03/17 01:24:49;;;;;;;;;69.25;53.25;;;;;9.62;40.55;100125.38;6314688;27;97040;-63
2022/03/17 01:27:52;;;;;;;;;72.80;56.80;;;;;9.39;40.58;100093.13;6296583;27;99701;-62
2022/03/17 01:30:55;;;;;;;;;70.00;54.25;;;;;9.53;40.69;100115.69;6294877;27;97274;-63
2022/03/17 01:33:59;;;;;;;;;71.80;54.40;;;;;9.43;40.69;100132.13;6315431;27;97451;-63
2022/03/17 01:37:04;;;;;;;;;71.40;53.00;;;;;9.37;40.83;100126.66;6297333;27;97606;-63
2022/03/17 01:40:09;;;;;;;;;69.50;52.00;;;;;9.35;40.82;100132.19;6314129;27;96888;-64
2022/03/17 01:43:13;;;;;;;;;71.60;53.80;;;;;9.32;40.85;100129.06;6295237;27;97306;-63
2022/03/17 01:46:18;;;;;;;;;69.00;53.00;;;;;9.32;41.14;100120.97;6314309;27;96907;-63
2022/03/17 01:49:21;;;;;;;;;68.00;52.00;;;;;9.29;41.25;100118.63;6263306;27;97094;-63
2022/03/17 01:52:26;;;;;;;;;67.00;51.00;;;;;9.26;41.59;100117.16;6314576;27;99885;-64
2022/03/17 01:55:30;;;;;;;;;67.00;52.00;;;;;9.20;41.89;100117.03;6295945;27;96742;-63
2022/03/17 01:58:34;;;;;;;;;66.00;52.00;;;;;9.20;41.56;100106.28;6314134;27;96901;-64
2022/03/17 02:01:38;;;;;;;;;64.40;51.00;;;;;9.06;41.97;100116.00;6295411;27;97026;-63
2022/03/17 02:04:42;;;;;;;;;68.50;51.00;;;;;9.03;41.98;100113.69;6314038;27;96918;-63
2022/03/17 02:07:49;;;;;;;;;69.60;50.00;;;;;8.99;41.99;100107.81;6313875;27;96871;-63
2022/03/17 02:14:14;;;;;;;;;67.00;51.00;;;;;8.87;42.40;100121.88;6314123;27;96997;-63
2022/03/17 02:17:17;;;;;;;;;66.50;51.00;;;;;8.84;42.25;100127.63;6313679;27;97586;-63
2022/03/17 02:20:24;;;;;;;;;66.20;51.00;;;;;8.84;42.37;100130.34;6295452;27;96723;-63
2022/03/17 02:26:51;;;;;;;;;69.20;51.80;;;;;8.76;42.46;100125.00;6312051;27;97558;-62
2022/03/17 02:29:54;;;;;;;;;67.00;51.00;;;;;8.71;42.70;100122.84;6313811;27;97042;-63
2022/03/17 02:33:03;;;;;;;;;69.20;51.20;;;;;8.58;42.83;100131.53;6294390;27;99689;-63
2022/03/17 02:36:09;;;;;;;;;65.20;50.00;;;;;8.58;42.94;100131.53;6313638;27;97454;-63
2022/03/17 02:39:13;;;;;;;;;64.80;50.00;;;;;8.56;42.90;100141.59;6312126;27;96676;-63
2022/03/17 02:42:23;;;;;;;;;65.40;51.00;;;;;8.51;42.88;100145.84;6313882;27;97164;-62
2022/03/17 02:45:27;;;;;;;;;64.40;50.00;;;;;8.50;43.15;100149.56;6312942;27;96897;-63
2022/03/17 02:48:30;;;;;;;;;65.00;51.00;;;;;8.50;42.98;100150.38;6293078;27;96789;-63
2022/03/17 02:51:33;;;;;;;;;68.00;51.40;;;;;8.49;43.08;100151.41;6312737;27;97545;-64
2022/03/17 02:54:38;;;;;;;;;68.40;51.00;;;;;8.46;43.04;100161.66;6304032;27;97042;-63
2022/03/17 02:57:44;;;;;;;;;65.00;51.00;;;;;8.49;43.03;100162.16;6306626;27;96924;-62
2022/03/17 03:00:47;;;;;;;;;67.00;51.80;;;;;8.47;42.84;100180.31;6313241;27;97836;-62
2022/03/17 03:03:51;;;;;;;;;67.50;51.50;;;;;8.47;42.92;100174.09;6312854;27;97091;-62
2022/03/17 03:06:54;;;;;;;;;66.20;51.00;;;;;8.36;43.31;100183.38;6312926;27;97387;-63
2022/03/17 03:09:59;;;;;;;;;67.00;52.00;;;;;8.35;43.26;100179.03;6310770;27;97011;-63
2022/03/17 03:13:03;;;;;;;;;67.20;52.20;;;;;8.22;43.29;100170.66;6292927;27;96746;-62
2022/03/17 03:16:06;;;;;;;;;65.80;51.00;;;;;8.20;43.45;100188.81;6310013;27;98237;-63
2022/03/17 03:19:10;;;;;;;;;67.20;51.00;;;;;8.20;43.60;100189.66;6310919;27;97242;-63
2022/03/17 03:22:13;;;;;;;;;66.20;50.40;;;;;8.24;43.82;100193.66;6310272;27;98606;-62
2022/03/17 03:25:20;;;;;;;;;68.75;52.00;;;;;8.13;43.76;100194.03;6294017;27;98433;-63
2022/03/17 03:28:23;;;;;;;;;68.20;52.00;;;;;8.01;43.90;100192.75;6293578;27;97228;-63
2022/03/17 03:31:26;;;;;;;;;66.00;51.00;;;;;8.02;43.95;100194.41;6313102;27;96532;-62
2022/03/17 03:34:30;;;;;;;;;66.60;50.60;;;;;7.90;44.18;100190.44;6312692;27;97122;-62
2022/03/17 03:37:32;;;;;;;;;67.60;52.00;;;;;7.74;44.71;100194.00;6292857;27;97906;-63
2022/03/17 03:40:36;;;;;;;;;68.00;52.00;;;;;7.66;44.40;100191.34;6292924;27;96663;-63
2022/03/17 03:43:40;;;;;;;;;68.40;52.00;;;;;7.58;44.58;100191.34;6313030;27;97123;-63
2022/03/17 03:46:43;;;;;;;;;67.50;52.00;;;;;7.57;44.51;100191.53;6307349;27;97775;-63
2022/03/17 03:49:47;;;;;;;;;66.00;50.00;;;;;7.56;44.53;100195.22;6312546;27;97067;-63
2022/03/17 03:52:50;;;;;;;;;67.25;51.00;;;;;7.52;44.90;100205.47;6294297;27;96749;-62
2022/03/17 03:55:55;;;;;;;;;66.40;50.20;;;;;7.38;44.83;100203.44;6311463;27;97181;-62
2022/03/17 03:58:58;;;;;;;;;66.00;50.00;;;;;7.30;45.10;100209.66;6312189;27;97595;-63
2022/03/17 04:02:04;;;;;;;;;67.20;52.20;;;;;7.26;45.15;100205.66;6291353;27;99109;-63
2022/03/17 04:05:10;;;;;;;;;64.75;50.25;;;;;7.29;45.02;100215.19;6309175;27;96562;-63
2022/03/17 04:08:13;;;;;;;;;62.60;49.60;;;;;7.28;44.90;100216.22;6311953;27;97318;-62
2022/03/17 04:11:18;;;;;;;;;63.80;48.20;;;;;7.28;45.17;100225.09;6290766;27;97773;-62
2022/03/17 04:14:21;;;;;;;;;65.00;51.00;;;;;7.19;45.16;100230.63;6309286;27;97484;-62
2022/03/17 04:17:25;;;;;;;;;69.60;52.20;;;;;7.13;45.03;100229.47;6306556;27;97419;-63
2022/03/17 04:20:29;;;;;;;;;68.40;51.00;;;;;7.17;44.97;100230.81;6308923;27;97123;-63
2022/03/17 04:23:32;;;;;;;;;67.40;50.60;;;;;7.17;45.03;100233.47;6309794;27;97467;-63
2022/03/17 04:26:38;;;;;;;;;63.00;50.00;;;;;7.14;44.94;100239.16;6309497;27;96580;-63
2022/03/17 04:29:41;;;;;;;;;67.00;50.00;;;;;7.06;45.02;100247.22;6295266;27;99149;-63
2022/03/17 04:32:44;;;;;;;;;62.60;50.00;;;;;6.96;45.22;100258.09;6312831;27;97481;-63
2022/03/17 04:35:48;;;;;;;;;65.00;50.25;;;;;6.98;45.14;100252.56;6315312;27;97468;-63
2022/03/17 04:38:51;;;;;;;;;64.50;50.50;;;;;7.04;45.12;100251.09;6311134;27;98763;-63
2022/03/17 04:41:56;;;;;;;;;65.60;49.60;;;;;7.09;44.87;100256.75;6313385;27;97488;-63
2022/03/17 04:45:00;;;;;;;;;67.50;50.00;;;;;7.09;44.87;100262.13;6313890;27;96834;-63
2022/03/17 04:48:03;;;;;;;;;65.40;50.00;;;;;7.07;44.82;100264.97;6313847;27;97402;-61
2022/03/17 04:51:07;;;;;;;;;66.25;49.25;;;;;7.08;44.92;100263.16;6294966;27;98460;-62
2022/03/17 04:54:10;;;;;;;;;64.80;51.00;;;;;7.08;44.82;100271.19;6303976;27;97471;-62
2022/03/17 04:57:15;;;;;;;;;64.00;49.00;;;;;7.09;44.89;100275.53;6305509;27;97160;-63
2022/03/17 05:00:18;;;;;;;;;64.00;49.80;;;;;6.84;44.82;100250.53;6292514;27;98688;-63
2022/03/17 05:03:21;;;;;;;;;61.75;48.00;;;;;7.01;44.34;100278.19;6289809;27;96980;-62
2022/03/17 05:06:25;;;;;;;;;63.00;48.00;;;;;7.03;44.89;100276.22;6284668;27;98630;-63
2022/03/17 05:09:28;;;;;;;;;60.60;46.80;;;;;6.85;44.73;100254.88;6310469;27;96650;-62
2022/03/17 05:12:33;;;;;;;;;60.20;47.80;;;;;7.01;44.97;100275.53;6312156;27;98222;-63
2022/03/17 05:15:37;;;;;;;;;62.00;48.00;;;;;7.01;44.83;100283.56;6307011;27;97553;-64
2022/03/17 05:18:40;;;;;;;;;62.00;48.00;;;;;7.02;44.71;100278.06;6293172;27;98446;-64
2022/03/17 05:21:44;;;;;;;;;62.00;48.00;;;;;7.07;44.57;100283.75;6292779;27;96731;-64
2022/03/17 05:24:47;;;;;;;;;63.00;48.00;;;;;7.10;44.66;100279.91;6275421;27;97800;-65
2022/03/17 05:27:52;;;;;;;;;61.40;48.40;;;;;7.06;44.75;100283.91;6312433;27;97930;-64
2022/03/17 05:30:55;;;;;;;;;63.40;49.00;;;;;7.10;44.73;100286.09;6278873;27;97038;-64
2022/03/17 05:33:59;;;;;;;;;65.40;50.40;;;;;7.13;44.64;100284.94;6278662;27;96804;-64
2022/03/17 05:37:02;;;;;;;;;65.40;49.00;;;;;7.16;44.72;100292.66;6315655;27;96528;-65
2022/03/17 05:40:09;;;;;;;;;62.00;48.00;;;;;7.26;44.65;100296.00;6311928;27;97461;-64
2022/03/17 05:43:14;;;;;;;;;62.75;48.00;;;;;7.36;44.49;100297.53;6285519;27;97188;-65
2022/03/17 05:46:17;;;;;;;;;63.20;48.20;;;;;7.37;44.33;100307.28;6295289;27;98616;-64
2022/03/17 05:49:20;;;;;;;;;63.00;48.00;;;;;7.41;44.64;100305.09;6298251;27;96811;-65
2022/03/17 05:52:23;;;;;;;;;60.00;48.00;;;;;7.44;44.35;100304.75;6281822;27;99561;-65
2022/03/17 05:55:27;;;;;;;;;59.50;46.00;;;;;7.43;44.44;100302.25;6310562;27;97592;-64
2022/03/17 05:58:32;;;;;;;;;62.00;48.00;;;;;7.43;44.24;100303.06;6288879;27;97563;-64
2022/03/17 06:01:35;;;;;;;;;60.00;46.40;;;;;7.45;44.42;100308.25;6276883;27;97720;-64
2022/03/17 06:04:40;;;;;;;;;61.00;48.20;;;;;7.54;44.25;100305.41;6296039;27;99317;-64
2022/03/17 06:07:46;;;;;;;;;63.75;48.50;;;;;7.66;44.02;100308.63;6297525;27;97185;-64
2022/03/17 06:10:49;;;;;;;;;61.00;46.00;;;;;7.79;44.17;100303.56;6296308;27;96495;-64
2022/03/17 06:13:56;;;;;;;;;61.50;48.00;;;;;7.77;43.42;100279.56;6313974;27;97969;-64
2022/03/17 06:16:59;;;;;;;;;62.00;48.00;;;;;8.01;43.03;100294.81;6315153;27;97680;-64
2022/03/17 06:20:03;;;;;;;;;63.60;49.00;;;;;8.11;42.96;100292.75;6315682;27;97521;-64
2022/03/17 06:23:07;;;;;;;;;61.60;49.00;;;;;8.34;42.82;100297.44;6314624;27;97651;-64
2022/03/17 06:26:10;;;;;;;;;66.00;50.20;;;;;8.32;42.52;100297.59;6294269;27;97571;-63
2022/03/17 06:29:15;;;;;;;;;64.00;49.00;;;;;8.45;42.33;100307.81;6314137;27;97423;-64
2022/03/17 06:32:19;;;;;;;;;64.25;50.50;;;;;8.67;42.02;100293.59;6313859;27;96609;-64
2022/03/17 06:35:26;;;;;;;;;63.00;48.20;;;;;8.72;41.58;100279.63;6278376;27;97261;-64
2022/03/17 06:38:29;;;;;;;;;62.00;48.00;;;;;9.02;41.27;100292.25;6289095;27;96689;-64
2022/03/17 06:41:32;;;;;;;;;60.80;48.20;;;;;9.22;40.89;100292.63;6309657;27;97872;-64
2022/03/17 06:44:37;;;;;;;;;64.80;48.00;;;;;9.26;46.23;100304.69;6312705;27;96688;-65
2022/03/17 06:47:41;;;;;;;;;62.00;47.40;;;;;9.44;44.25;100303.38;6313797;27;97439;-64
2022/03/17 06:50:46;;;;;;;;;64.00;48.00;;;;;9.64;44.88;100314.50;6280130;27;97496;-65
2022/03/17 06:53:49;;;;;;;;;62.75;49.00;;;;;9.92;43.50;100302.13;6295734;27;97555;-65
2022/03/17 06:56:52;;;;;;;;;62.00;48.00;;;;;10.32;41.29;100310.84;6294288;27;99535;-65
2022/03/17 06:59:57;;;;;;;;;61.60;48.00;;;;;10.60;40.28;100305.66;6278403;27;96972;-64
2022/03/17 07:03:00;;;;;;;;;62.40;48.00;;;;;10.75;39.70;100314.56;6294670;27;98127;-64
2022/03/17 07:06:04;;;;;;;;;62.00;47.00;;;;;11.10;38.64;100320.97;6307607;27;97024;-65
2022/03/17 07:09:07;;;;;;;;;62.60;48.00;;;;;11.64;37.42;100327.59;6278379;27;97764;-64
2022/03/17 07:12:11;;;;;;;;;62.00;47.00;;;;;12.09;36.26;100315.53;6286949;27;96711;-64
2022/03/17 07:15:16;;;;;;;;;62.00;48.80;;;;;12.94;34.72;100338.72;6300835;27;97164;-64
2022/03/17 07:18:19;;;;;;;;;58.20;45.60;;;;;13.58;33.79;100332.91;6258194;27;98813;-64
2022/03/17 07:21:23;;;;;;;;;64.00;49.00;;;;;14.26;32.71;100327.09;6312191;27;97290;-64
2022/03/17 07:24:26;;;;;;;;;60.00;47.00;;;;;14.90;31.41;100328.22;6303533;27;97497;-65
2022/03/17 07:27:30;;;;;;;;;64.00;49.00;;;;;15.44;30.71;100344.84;6293659;27;99607;-64
2022/03/17 07:30:35;;;;;;;;;63.40;48.00;;;;;16.01;29.61;100338.44;6312110;27;97133;-65
2022/03/17 07:33:38;;;;;;;;;62.25;48.00;;;;;16.52;28.82;100341.97;6294153;27;97020;-65
2022/03/17 07:36:44;;;;;;;;;61.00;47.00;;;;;16.97;28.25;100340.63;6307317;27;98758;-65
2022/03/17 07:39:48;;;;;;;;;62.00;48.00;;;;;17.48;27.52;100342.91;6286044;27;97348;-65
2022/03/17 07:42:52;;;;;;;;;63.00;48.00;;;;;18.04;26.69;100338.91;6286734;27;96904;-64
2022/03/17 07:45:56;;;;;;;;;62.00;49.00;;;;;18.49;26.24;100342.75;6312932;27;96939;-65
2022/03/17 07:49:29;;;;;;;;;63.80;50.00;;;;;19.00;25.10;100343.91;6312873;27;97484;-65
2022/03/17 07:52:32;;;;;;;;;62.80;48.80;;;;;19.53;24.60;100353.75;6294543;27;98304;-65
2022/03/17 07:55:36;;;;;;;;;62.75;48.00;;;;;19.96;24.32;100362.19;6311792;27;96815;-65
2022/03/17 07:58:40;;;;;;;;;64.00;50.00;;;;;20.29;23.92;100353.16;6290744;27;97707;-64
2022/03/17 08:01:45;;;;;;;;;61.20;47.40;;;;;20.55;23.25;100349.78;6311883;27;96950;-65
2022/03/17 08:04:50;;;;;;;;;62.50;49.50;;;;;20.85;23.02;100362.25;6297653;27;97550;-65
2022/03/17 08:07:54;;;;;;;;;62.00;47.00;;;;;20.92;22.74;100352.75;6317074;27;97162;-65
2022/03/17 08:10:58;;;;;;;;;61.80;46.60;;;;;21.15;22.04;100349.81;6298540;27;96970;-66
2022/03/17 08:14:04;;;;;;;;;58.00;46.40;;;;;21.51;22.14;100356.53;6316504;27;96705;-66
2022/03/17 08:17:09;;;;;;;;;59.50;47.00;;;;;21.65;21.45;100354.19;6314197;27;97034;-65
2022/03/17 08:20:13;;;;;;;;;57.25;44.25;;;;;21.74;21.04;100358.16;6289269;27;97545;-66
2022/03/17 08:23:21;;;;;;;;;60.75;46.00;;;;;21.88;20.94;100362.13;6271727;27;97222;-66
2022/03/17 08:26:24;;;;;;;;;60.60;46.00;;;;;21.99;21.14;100365.84;6298298;27;97849;-66
2022/03/17 08:29:29;;;;;;;;;57.50;46.00;;;;;21.89;20.75;100368.47;6312188;27;97496;-66
2022/03/17 08:32:34;;;;;;;;;56.00;44.00;;;;;21.27;21.62;100366.13;6291608;27;96775;-66
2022/03/17 08:35:37;;;;;;;;;56.00;44.00;;;;;21.54;21.38;100367.00;6298549;27;98407;-65
2022/03/17 08:38:41;;;;;;;;;54.60;44.00;;;;;22.05;21.34;100364.78;6279124;27;97736;-66
2022/03/17 08:41:44;;;;;;;;;52.40;41.00;;;;;22.46;19.87;100360.44;6311610;27;97227;-65
2022/03/17 08:44:47;;;;;;;;;46.00;38.00;;;;;21.47;19.57;100358.13;6316371;27;97430;-65
2022/03/17 08:51:13;;;;;;;;;43.60;35.00;;;;;18.71;22.31;100367.59;6293397;27;96889;-65
2022/03/17 08:54:16;;;;;;;;;50.40;40.40;;;;;18.80;23.10;100374.38;6316473;27;97110;-65
2022/03/17 08:57:20;;;;;;;;;51.60;41.00;;;;;19.28;22.80;100370.44;6298081;27;96877;-65
2022/03/17 09:00:24;;;;;;;;;48.20;38.00;;;;;19.12;22.10;100387.59;6316097;27;97519;-65
2022/03/17 09:03:30;;;;;;;;;45.60;36.00;;;;;19.19;22.48;100377.38;6298019;27;96529;-66
2022/03/17 09:06:36;;;;;;;;;46.50;38.00;;;;;19.02;22.75;100377.28;6316630;27;97474;-66
2022/03/17 09:09:40;;;;;;;;;44.00;35.00;;;;;18.89;22.53;100372.09;6317008;27;96771;-65
2022/03/17 09:12:43;;;;;;;;;46.00;36.60;;;;;18.65;22.89;100384.94;6316527;27;98748;-66
2022/03/17 09:15:47;;;;;;;;;44.40;35.40;;;;;18.73;22.57;100381.00;6296139;27;97452;-66
2022/03/17 09:18:51;;;;;;;;;43.00;36.00;;;;;19.06;22.79;100381.19;6297194;27;97083;-65
2022/03/17 09:21:55;;;;;;;;;40.00;34.00;;;;;19.71;21.77;100387.19;6279659;27;99839;-66
2022/03/17 09:24:58;;;;;;;;;42.50;35.00;;;;;19.40;21.72;100388.47;6295700;27;96961;-66
2022/03/17 09:28:01;;;;;;;;;40.40;35.00;;;;;19.19;22.09;100386.41;6315170;27;97532;-66
2022/03/17 09:31:05;;;;;;;;;39.75;33.00;;;;;19.17;22.00;100393.19;6315063;27;97569;-65
2022/03/17 09:34:10;;;;;;;;;34.00;30.20;;;;;19.08;21.10;100392.72;6315473;27;96999;-66
2022/03/17 09:37:14;;;;;;;;;24.80;21.00;;;;;18.76;20.29;100391.47;6297349;27;97176;-66
2022/03/17 09:40:18;;;;;;;;;25.00;21.00;;;;;19.30;20.33;100373.78;6296822;27;97875;-66
2022/03/17 09:43:22;;;;;;;;;22.40;20.00;;;;;18.98;20.45;100392.50;6296602;27;96654;-65
2022/03/17 09:46:28;;;;;;;;;19.00;17.00;;;;;18.86;19.33;100387.03;6314877;27;97521;-66
2022/03/17 09:49:36;;;;;;;;;21.00;19.00;;;;;18.59;20.25;100396.81;6280071;27;99063;-65
2022/03/17 09:52:42;;;;;;;;;22.40;20.00;;;;;18.09;20.20;100394.47;6296624;27;97539;-65
2022/03/17 09:55:45;;;;;;;;;20.60;18.60;;;;;18.86;20.19;100373.38;6313996;27;96938;-66
2022/03/17 09:58:48;;;;;;;;;21.00;20.60;;;;;18.57;20.42;100377.09;6315359;27;97114;-66
2022/03/17 10:01:52;;;;;;;;;21.00;16.80;;;;;18.63;20.38;100381.59;6313508;27;97207;-65
2022/03/17 10:04:58;;;;;;;;;24.40;23.00;;;;;18.27;20.54;100388.09;6314739;27;97029;-66
2022/03/17 10:08:01;;;;;;;;;23.00;21.00;;;;;18.40;20.47;100384.31;6315347;27;96368;-66
2022/03/17 10:11:06;;;;;;;;;19.40;19.00;;;;;18.69;19.61;100388.03;6295677;27;97384;-65
2022/03/17 10:14:10;;;;;;;;;22.00;18.00;;;;;19.69;19.55;100367.47;6313680;27;97503;-65
2022/03/17 10:17:31;;;;;;;;;21.80;16.80;;;;;19.88;18.64;100390.00;6311359;27;97127;-66
2022/03/17 10:20:36;;;;;;;;;19.00;18.00;;;;;18.98;19.46;100367.91;6314990;27;96827;-66
2022/03/17 10:23:45;;;;;;;;;18.80;16.80;;;;;18.97;19.69;100369.81;6288360;27;98552;-65
2022/03/17 10:26:50;;;;;;;;;23.00;20.00;;;;;18.67;20.01;100384.72;6282231;27;97480;-66
2022/03/17 10:30:02;;;;;;;;;19.80;19.80;;;;;18.12;20.13;100366.72;6283990;27;98566;-66
2022/03/17 10:33:09;;;;;;;;;19.20;18.00;;;;;18.16;20.62;100362.44;6294595;27;97543;-65
2022/03/17 10:36:21;;;;;;;;;19.00;18.00;;;;;18.71;20.29;100355.84;6314170;27;96609;-66
2022/03/17 10:39:36;;;;;;;;;22.40;19.60;;;;;19.60;19.73;100354.41;6294311;27;97105;-66
2022/03/17 10:42:39;;;;;;;;;22.20;21.00;;;;;20.36;18.80;100348.38;6295642;27;96501;-66
2022/03/17 10:45:43;;;;;;;;;21.00;19.00;;;;;21.24;18.55;100360.31;6314871;27;97512;-66
2022/03/17 10:48:55;;;;;;;;;19.00;18.00;;;;;20.85;18.14;100327.44;6313991;27;97432;-66
2022/03/17 10:52:00;;;;;;;;;20.60;17.40;;;;;20.56;18.42;100362.41;6309716;27;97483;-66
2022/03/17 10:55:08;;;;;;;;;21.60;18.20;;;;;21.26;18.40;100349.94;6292456;27;98200;-65
2022/03/17 10:58:14;;;;;;;;;19.40;16.00;;;;;21.18;18.33;100348.47;6309281;27;97517;-66
2022/03/17 11:01:17;;;;;;;;;16.00;15.00;;;;;20.48;17.86;100351.00;6312014;27;96687;-65
2022/03/17 11:04:21;;;;;;;;;15.50;15.50;;;;;19.44;19.20;100365.09;6293548;27;96728;-65
2022/03/17 11:07:29;;;;;;;;;20.20;18.20;;;;;19.77;19.29;100336.13;6309789;27;97999;-65
2022/03/17 11:10:32;;;;;;;;;22.00;21.00;;;;;20.33;18.85;100355.19;6293586;27;96713;-65
2022/03/17 11:13:36;;;;;;;;;19.60;16.80;;;;;20.43;18.44;100354.50;6272686;27;98629;-66
2022/03/17 11:16:43;;;;;;;;;19.00;18.00;;;;;21.30;17.89;100351.09;6292502;27;99589;-66
2022/03/17 11:19:47;;;;;;;;;21.00;18.00;;;;;21.98;16.99;100356.78;6311937;27;97120;-66
2022/03/17 11:23:09;;;;;;;;;20.60;18.00;;;;;21.65;17.67;100358.88;6310738;27;96868;-66
2022/03/17 11:26:22;;;;;;;;;17.60;15.20;;;;;20.17;17.98;100341.47;6289505;27;99709;-66
2022/03/17 11:29:29;;;;;;;;;14.00;14.00;;;;;20.30;18.27;100363.03;6293859;27;97500;-66
2022/03/17 11:32:35;;;;;;;;;17.40;16.00;;;;;20.50;18.07;100371.63;6292782;27;98005;-66
2022/03/17 11:35:38;;;;;;;;;16.00;15.00;;;;;20.11;18.13;100365.19;6311257;27;96725;-67
2022/03/17 11:39:02;;;;;;;;;17.60;15.80;;;;;19.96;18.63;100356.72;6308440;27;98204;-67
2022/03/17 11:42:29;;;;;;;;;18.60;17.00;;;;;20.42;18.83;100361.09;6307796;27;96798;-67
2022/03/17 11:45:37;;;;;;;;;18.00;17.00;;;;;20.98;18.31;100350.91;6289446;27;97070;-67
2022/03/17 11:48:41;;;;;;;;;18.75;16.00;;;;;21.03;17.49;100359.19;6286844;27;99087;-67
2022/03/17 11:51:53;;;;;;;;;22.00;20.00;;;;;21.37;18.15;100349.78;6305547;27;98364;-67
2022/03/17 11:55:30;;;;;;;;;21.00;18.60;;;;;21.54;18.05;100345.06;6310249;27;96982;-66
2022/03/17 11:58:42;;;;;;;;;23.60;21.00;;;;;20.90;17.73;100343.13;6309199;27;96708;-66
2022/03/17 12:01:47;;;;;;;;;21.80;18.60;;;;;20.10;18.19;100347.09;6312349;27;97027;-67
2022/03/17 12:04:52;;;;;;;;;18.50;15.75;;;;;19.94;18.80;100334.22;6311277;27;97233;-66
2022/03/17 12:08:00;;;;;;;;;22.50;20.00;;;;;20.44;18.29;100333.41;6312288;27;96772;-66
2022/03/17 12:11:11;;;;;;;;;18.00;16.00;;;;;19.97;18.03;100330.19;6294535;27;97105;-66
2022/03/17 12:14:19;;;;;;;;;21.00;18.00;;;;;19.90;18.35;100338.53;6313271;27;96571;-67
2022/03/17 12:17:23;;;;;;;;;20.00;17.00;;;;;20.43;18.91;100332.59;6312085;27;97158;-66
2022/03/17 12:20:28;;;;;;;;;16.00;15.00;;;;;19.46;18.94;100334.72;6291052;27;96902;-66
2022/03/17 12:23:46;;;;;;;;;23.00;19.60;;;;;19.25;19.19;100335.41;6310078;27;96580;-67
2022/03/17 12:26:49;;;;;;;;;19.00;16.50;;;;;19.35;19.20;100339.13;6293020;27;96895;-66
2022/03/17 12:29:58;;;;;;;;;20.60;18.40;;;;;19.56;19.04;100340.41;6311169;27;96915;-66
2022/03/17 12:33:06;;;;;;;;;19.00;16.00;;;;;19.85;19.02;100333.81;6310701;27;97470;-68
2022/03/17 12:36:12;;;;;;;;;17.50;17.00;;;;;19.92;18.14;100336.41;6295618;27;98167;-66
2022/03/17 12:39:16;;;;;;;;;17.00;15.00;;;;;19.86;17.86;100334.66;6310630;27;96802;-66
2022/03/17 12:42:21;;;;;;;;;18.00;15.60;;;;;19.10;19.23;100333.19;6311883;27;97054;-66
2022/03/17 12:45:26;;;;;;;;;19.00;18.00;;;;;19.28;18.79;100337.63;6313054;27;96409;-65
2022/03/17 12:48:31;;;;;;;;;18.60;15.00;;;;;19.36;18.58;100329.88;6312927;27;97625;-66
2022/03/17 12:51:34;;;;;;;;;16.80;14.40;;;;;19.25;19.03;100328.03;6297954;27;96526;-65
2022/03/17 12:54:37;;;;;;;;;19.00;17.00;;;;;19.49;18.82;100330.69;6316520;27;97305;-66
2022/03/17 12:57:41;;;;;;;;;17.00;15.40;;;;;19.24;18.37;100331.00;6298664;27;96598;-66
2022/03/17 13:00:48;;;;;;;;;15.00;14.00;;;;;18.50;18.47;100329.94;6291140;27;96847;-66
2022/03/17 13:03:51;;;;;;;;;16.50;14.50;;;;;18.96;18.88;100340.00;6286901;27;96612;-65
2022/03/17 13:06:57;;;;;;;;;15.60;15.00;;;;;19.15;17.83;100324.25;6316964;27;97489;-66
2022/03/17 13:10:00;;;;;;;;;16.00;14.00;;;;;18.81;18.21;100331.47;6300403;27;96633;-67
2022/03/17 13:16:29;;;;;;;;;14.50;13.25;;;;;19.10;17.84;100333.19;6295665;27;98585;-66
2022/03/17 13:19:44;;;;;;;;;12.50;11.50;;;;;18.65;17.30;100329.47;6316420;27;97545;-65
2022/03/17 13:22:58;;;;;;;;;15.20;13.20;;;;;18.24;18.13;100324.94;6315222;27;98057;-64
2022/03/17 13:26:02;;;;;;;;;15.00;13.60;;;;;18.37;18.37;100333.75;6316438;27;97664;-65
2022/03/17 13:29:08;;;;;;;;;14.00;12.20;;;;;18.78;18.44;100321.84;6316194;27;96542;-65
2022/03/17 13:32:17;;;;;;;;;12.40;11.00;;;;;18.71;18.09;100321.16;6316327;27;97106;-65
2022/03/17 13:35:20;;;;;;;;;15.50;13.50;;;;;18.40;18.43;100325.06;6314788;27;97451;-66
2022/03/17 13:38:33;;;;;;;;;13.00;12.00;;;;;18.28;18.97;100323.38;6293389;27;97081;-66
2022/03/17 13:41:37;;;;;;;;;14.00;12.20;;;;;17.79;18.38;100321.94;6313439;27;96285;-65
2022/03/17 13:44:52;;;;;;;;;15.00;13.40;;;;;17.80;19.00;100326.28;6295307;27;98656;-66
2022/03/17 13:48:22;;;;;;;;;14.00;13.00;;;;;17.25;19.11;100321.81;6310367;27;96801;-65
2022/03/17 13:51:28;;;;;;;;;14.80;13.40;;;;;17.03;19.25;100317.09;6311999;27;96617;-65
2022/03/17 13:54:39;;;;;;;;;13.20;12.00;;;;;16.60;20.06;100322.63;6312983;27;96819;-64
2022/03/17 13:57:43;;;;;;;;;13.40;12.00;;;;;16.54;20.18;100318.03;6310591;27;97020;-65
2022/03/17 14:00:49;;;;;;;;;14.80;13.00;;;;;16.73;19.97;100320.59;6315014;27;96453;-65
2022/03/17 14:03:59;;;;;;;;;13.00;12.00;;;;;16.83;19.49;100315.44;6297682;27;97987;-65
2022/03/17 14:07:02;;;;;;;;;13.20;9.60;;;;;16.76;19.02;100320.13;6310652;27;96641;-65
2022/03/17 14:10:06;;;;;;;;;12.00;11.00;;;;;16.66;19.20;100330.72;6294211;27;97833;-65
2022/03/17 14:13:10;;;;;;;;;12.50;11.50;;;;;16.51;19.07;100321.22;6280241;27;96949;-65
2022/03/17 14:16:14;;;;;;;;;9.40;8.00;;;;;16.35;18.76;100328.09;6312228;27;97185;-65
2022/03/17 14:19:19;;;;;;;;;10.60;10.00;;;;;16.46;18.83;100311.84;6315262;27;97597;-64